createdAt,value
2022-10-17T00:00:29.946Z,101624.19
2022-10-17T00:03:01.402Z,101624.78
2022-10-17T00:05:33.262Z,101628.72
2022-10-17T00:08:04.835Z,101630.81
2022-10-17T00:10:36.627Z,101624.25
2022-10-17T00:13:08.102Z,101618.88
2022-10-17T00:15:39.857Z,101621.72
2022-10-17T00:18:11.318Z,101607.50
2022-10-17T00:20:43.173Z,101606.69
2022-10-17T00:23:14.650Z,101605.06
2022-10-17T00:25:46.474Z,101610.41
2022-10-17T00:28:18.252Z,101615.78
2022-10-17T00:30:49.698Z,101619.09
2022-10-17T00:33:21.476Z,101630.47
2022-10-17T00:35:52.968Z,101625.78
2022-10-17T00:38:24.712Z,101614.44
2022-10-17T00:43:32.829Z,101608.06
2022-10-17T00:46:04.340Z,101611.56
2022-10-17T00:48:36.137Z,101613.84
2022-10-17T00:51:07.598Z,101613.03
2022-10-17T00:53:39.428Z,101611.38
2022-10-17T00:56:10.913Z,101611.34
2022-10-17T00:58:42.693Z,101617.91
2022-10-17T01:01:14.187Z,101618.28
2022-10-17T01:03:46.086Z,101616.22
2022-10-17T01:06:17.603Z,101623.22
2022-10-17T01:08:49.389Z,101628.94
2022-10-17T01:11:20.911Z,101616.38
2022-10-17T01:13:52.679Z,101608.56
2022-10-17T01:16:24.149Z,101611.88
2022-10-17T01:18:56.019Z,101609.03
2022-10-17T01:21:27.524Z,101603.94
2022-10-17T01:23:59.312Z,101601.69
2022-10-17T01:26:30.793Z,101604.56
2022-10-17T01:29:02.523Z,101602.94
2022-10-17T01:31:33.998Z,101608.50
2022-10-17T01:34:05.835Z,101595.81
2022-10-17T01:36:37.361Z,101594.78
2022-10-17T01:39:08.842Z,101589.84
2022-10-17T01:41:40.407Z,101578.94
2022-10-17T01:44:12.653Z,101583.69
2022-10-17T01:46:44.248Z,101592.97
2022-10-17T01:49:16.305Z,101589.69
2022-10-17T01:51:47.789Z,101591.16
2022-10-17T01:54:19.622Z,101583.75
2022-10-17T01:56:51.131Z,101587.47
2022-10-17T01:59:23.050Z,101597.56
2022-10-17T02:01:54.535Z,101588.31
2022-10-17T02:04:26.492Z,101595.16
2022-10-17T02:06:58.038Z,101593.50
2022-10-17T02:09:29.947Z,101601.75
2022-10-17T02:12:01.444Z,101593.94
2022-10-17T02:14:34.330Z,101602.78
2022-10-17T02:17:05.832Z,101603.38
2022-10-17T02:19:37.825Z,101595.34
2022-10-17T02:22:09.315Z,101593.13
2022-10-17T02:24:41.151Z,101592.72
2022-10-17T02:27:12.700Z,101593.75
2022-10-17T02:29:44.541Z,101591.09
2022-10-17T02:32:17.359Z,101589.44
2022-10-17T02:34:49.518Z,101586.34
2022-10-17T02:37:20.991Z,101581.81
2022-10-17T02:39:52.843Z,101582.63
2022-10-17T02:42:24.347Z,101583.22
2022-10-17T02:44:56.287Z,101583.22
2022-10-17T02:47:27.786Z,101580.78
2022-10-17T02:49:59.662Z,101578.69
2022-10-17T02:52:31.473Z,101581.38
2022-10-17T02:55:03.578Z,101571.28
2022-10-17T02:57:35.088Z,101579.31
2022-10-17T03:00:06.928Z,101580.72
2022-10-17T03:02:38.468Z,101571.28
2022-10-17T03:05:10.019Z,101577.44
2022-10-17T03:07:41.583Z,101574.56
2022-10-17T03:10:13.374Z,101321.84
2022-10-17T03:12:44.874Z,101580.25
2022-10-17T03:15:16.719Z,101580.91
2022-10-17T03:17:48.250Z,101577.34
2022-10-17T03:20:19.768Z,101585.56
2022-10-17T03:22:51.588Z,101580.41
2022-10-17T03:25:23.095Z,101569.66
2022-10-17T03:27:54.968Z,101567.34
2022-10-17T03:30:26.443Z,101557.47
2022-10-17T03:32:58.429Z,101560.97
2022-10-17T03:35:29.984Z,101563.41
2022-10-17T03:38:02.166Z,101567.72
2022-10-17T03:40:33.684Z,101564.84
2022-10-17T03:43:05.510Z,101559.69
2022-10-17T03:45:36.985Z,101565.06
2022-10-17T03:48:09.079Z,101564.03
2022-10-17T03:50:40.601Z,101558.66
2022-10-17T03:53:12.503Z,101557.03
2022-10-17T03:55:44.230Z,101556.41
2022-10-17T03:58:16.132Z,101555.38
2022-10-17T04:00:48.058Z,101559.91
2022-10-17T04:03:19.878Z,101557.47
2022-10-17T04:05:51.367Z,101553.75
2022-10-17T04:08:23.252Z,101553.75
2022-10-17T04:10:54.748Z,101550.25
2022-10-17T04:13:26.649Z,101544.88
2022-10-17T04:15:58.300Z,101545.09
2022-10-17T04:18:30.160Z,101545.53
2022-10-17T04:21:01.659Z,101537.72
2022-10-17T04:23:33.665Z,101534.66
2022-10-17T04:26:05.168Z,101541.88
2022-10-17T04:28:36.989Z,101543.94
2022-10-17T04:31:08.520Z,101544.78
2022-10-17T04:33:40.099Z,101539.81
2022-10-17T04:36:11.606Z,101545.63
2022-10-17T04:38:43.442Z,101543.97
2022-10-17T04:41:14.992Z,101540.69
2022-10-17T04:43:50.130Z,101540.91
2022-10-17T04:46:22.866Z,101548.13
2022-10-17T04:48:54.909Z,101544.84
2022-10-17T04:51:26.732Z,101542.59
2022-10-17T04:53:58.805Z,101545.47
2022-10-17T04:56:30.321Z,101544.63
2022-10-17T04:59:02.374Z,101543.00
2022-10-17T05:01:33.882Z,101543.00
2022-10-17T05:04:05.703Z,101548.34
2022-10-17T05:06:37.734Z,101545.06
2022-10-17T05:09:09.529Z,101544.03
2022-10-17T05:11:41.021Z,101555.56
2022-10-17T05:14:12.972Z,101544.47
2022-10-17T05:16:44.465Z,101543.66
2022-10-17T05:19:16.311Z,101555.19
2022-10-17T05:21:47.855Z,101552.50
2022-10-17T05:24:19.601Z,101552.28
2022-10-17T05:26:52.013Z,101553.31
2022-10-17T05:29:23.959Z,101544.69
2022-10-17T05:31:55.591Z,101546.75
2022-10-17T05:34:27.523Z,101540.59
2022-10-17T05:36:59.414Z,101544.91
2022-10-17T05:39:30.911Z,101542.81
2022-10-17T05:42:02.739Z,101542.81
2022-10-17T05:44:34.253Z,101546.09
2022-10-17T05:47:06.145Z,101551.03
2022-10-17T05:49:46.334Z,101548.97
2022-10-17T05:52:21.803Z,101546.47
2022-10-17T05:54:53.336Z,101552.00
2022-10-17T05:57:25.240Z,101557.53
2022-10-17T05:59:56.744Z,101559.59
2022-10-17T06:02:28.950Z,101571.06
2022-10-17T06:05:00.734Z,101569.59
2022-10-17T06:07:32.675Z,101567.06
2022-10-17T06:10:04.191Z,101578.22
2022-10-17T06:12:36.149Z,101578.00
2022-10-17T06:15:07.667Z,101577.94
2022-10-17T06:17:39.559Z,101589.41
2022-10-17T06:20:11.141Z,101600.91
2022-10-17T06:22:43.463Z,101585.13
2022-10-17T06:25:15.026Z,101598.50
2022-10-17T06:27:46.884Z,101606.50
2022-10-17T06:30:18.410Z,101609.31
2022-10-17T06:32:50.266Z,101616.84
2022-10-17T06:35:22.233Z,101612.03
2022-10-17T06:37:54.046Z,101609.53
2022-10-17T06:40:25.583Z,101612.28
2022-10-17T06:42:57.880Z,101616.16
2022-10-17T06:45:29.380Z,101613.56
2022-10-17T06:48:01.183Z,101616.25
2022-10-17T06:50:32.685Z,101615.22
2022-10-17T06:53:04.517Z,101617.63
2022-10-17T06:55:36.012Z,101624.19
2022-10-17T06:58:07.807Z,101616.50
2022-10-17T07:00:39.393Z,101620.84
2022-10-17T07:03:11.363Z,101614.47
2022-10-17T07:05:42.846Z,101622.81
2022-10-17T07:08:14.675Z,101614.50
2022-10-17T07:10:46.167Z,101623.91
2022-10-17T07:13:17.942Z,101618.97
2022-10-17T07:15:49.474Z,101633.78
2022-10-17T07:18:21.410Z,101623.66
2022-10-17T07:20:52.919Z,101630.78
2022-10-17T07:23:24.756Z,101638.72
2022-10-17T07:25:56.260Z,101633.56
2022-10-17T07:28:28.687Z,101632.66
2022-10-17T07:31:00.214Z,101636.03
2022-10-17T07:33:32.287Z,101630.66
2022-10-17T07:36:03.807Z,101635.69
2022-10-17T07:38:35.626Z,101637.31
2022-10-17T07:41:07.134Z,101645.38
2022-10-17T07:43:39.250Z,101638.47
2022-10-17T07:46:11.542Z,101637.06
2022-10-17T07:48:43.608Z,101643.81
2022-10-17T07:51:15.158Z,101638.91
2022-10-17T07:53:48.834Z,101644.09
2022-10-17T07:56:24.550Z,101640.09
2022-10-17T08:01:28.879Z,101644.16
2022-10-17T08:04:00.673Z,101637.78
2022-10-17T08:06:32.208Z,101639.69
2022-10-17T08:09:04.017Z,101556.47
2022-10-17T08:11:36.574Z,101641.06
2022-10-17T08:14:08.414Z,101646.13
2022-10-17T08:16:40.330Z,101644.06
2022-10-17T08:19:12.961Z,101640.53
2022-10-17T08:21:47.123Z,101643.31
2022-10-17T08:24:18.622Z,101642.09
2022-10-17T08:26:51.897Z,101644.78
2022-10-17T08:29:23.496Z,101644.03
2022-10-17T08:32:00.918Z,101641.56
2022-10-17T08:34:33.392Z,101641.22
2022-10-17T08:37:05.288Z,101638.72
2022-10-17T08:39:36.816Z,101630.03
2022-10-17T08:42:08.639Z,101627.53
2022-10-17T08:44:40.130Z,101631.97
2022-10-17T08:47:11.951Z,101626.31
2022-10-17T08:49:46.816Z,101627.69
2022-10-17T08:52:18.673Z,101628.19
2022-10-17T08:54:50.229Z,101628.78
2022-10-17T08:57:22.219Z,101623.25
2022-10-17T08:59:53.791Z,101627.72
2022-10-17T09:02:26.579Z,101628.84
2022-10-17T09:04:58.954Z,101627.00
2022-10-17T09:07:31.051Z,101632.09
2022-10-17T09:10:02.934Z,101631.66
2022-10-17T09:12:34.703Z,101630.56
2022-10-17T09:15:06.223Z,101639.25
2022-10-17T09:17:38.222Z,101632.47
2022-10-17T09:20:10.225Z,101640.09
2022-10-17T09:22:42.254Z,101631.13
2022-10-17T09:25:13.826Z,101631.66
2022-10-17T09:27:45.901Z,101630.56
2022-10-17T09:30:40.117Z,101631.00
2022-10-17T09:33:10.852Z,101626.13
2022-10-17T09:35:46.742Z,101628.25
2022-10-17T09:38:18.551Z,101628.69
2022-10-17T09:40:52.653Z,101625.75
2022-10-17T09:43:28.665Z,101618.91
2022-10-17T09:46:00.274Z,101620.34
2022-10-17T09:48:32.239Z,101620.50
2022-10-17T09:51:14.835Z,101625.44
2022-10-17T09:53:46.876Z,101620.47
2022-10-17T09:56:18.427Z,101618.38
2022-10-17T09:58:50.283Z,101608.38
2022-10-17T10:01:24.082Z,101599.09
2022-10-17T10:03:56.109Z,101605.59
2022-10-17T10:06:28.019Z,101604.94
2022-10-17T10:08:59.546Z,101600.25
2022-10-17T10:11:31.392Z,101609.16
2022-10-17T10:14:02.897Z,101610.63
2022-10-17T10:16:34.710Z,101612.81
2022-10-17T10:19:08.418Z,101609.31
2022-10-17T10:21:43.998Z,101614.75
2022-10-17T10:24:16.674Z,101613.34
2022-10-17T10:26:48.740Z,101597.59
2022-10-17T10:29:20.242Z,101604.88
2022-10-17T10:31:52.274Z,101606.72
2022-10-17T10:34:23.887Z,101605.56
2022-10-17T10:36:56.048Z,101608.00
2022-10-17T10:39:27.585Z,101603.66
2022-10-17T10:41:59.500Z,101597.13
2022-10-17T10:44:31.020Z,101603.03
2022-10-17T10:47:02.815Z,101600.56
2022-10-17T10:49:34.339Z,101600.38
2022-10-17T10:52:06.208Z,101600.34
2022-10-17T10:57:14.491Z,101588.97
2022-10-17T11:02:17.834Z,101593.38
2022-10-17T11:04:49.334Z,101594.66
2022-10-17T11:07:23.037Z,101589.00
2022-10-17T11:09:54.570Z,101576.28
2022-10-17T11:12:26.459Z,101593.72
2022-10-17T11:14:57.981Z,101582.25
2022-10-17T11:17:30.270Z,101576.50
2022-10-17T11:20:02.097Z,101571.22
2022-10-17T11:22:34.460Z,101570.31
2022-10-17T11:25:06.136Z,101572.53
2022-10-17T11:27:37.905Z,101564.06
2022-10-17T11:30:09.402Z,101562.38
2022-10-17T11:32:41.295Z,101560.50
2022-10-17T11:35:12.827Z,101567.56
2022-10-17T11:37:48.301Z,101559.22
2022-10-17T11:40:23.545Z,101556.69
2022-10-17T11:42:56.518Z,101561.28
2022-10-17T11:45:28.539Z,101564.75
2022-10-17T11:48:00.026Z,101555.75
2022-10-17T11:53:25.009Z,101554.88
2022-10-17T11:55:56.944Z,101549.94
2022-10-17T11:58:30.174Z,101561.97
2022-10-17T12:01:01.887Z,101557.03
2022-10-17T12:03:33.470Z,101558.13
2022-10-17T12:06:05.523Z,101541.75
2022-10-17T12:08:38.400Z,101557.63
2022-10-17T12:11:10.358Z,101550.38
2022-10-17T12:13:41.933Z,101556.00
2022-10-17T12:16:17.424Z,101547.72
2022-10-17T12:18:49.117Z,101542.22
2022-10-17T12:21:21.071Z,101547.53
2022-10-17T12:23:52.695Z,101532.56
2022-10-17T12:26:24.550Z,101544.47
2022-10-17T12:28:56.087Z,101539.22
2022-10-17T12:31:33.538Z,101546.28
2022-10-17T12:34:05.340Z,101540.03
2022-10-17T12:36:37.563Z,101539.03
2022-10-17T12:39:14.723Z,101539.22
2022-10-17T12:41:46.936Z,101539.41
2022-10-17T12:44:21.363Z,101522.63
2022-10-17T12:46:52.912Z,101534.78
2022-10-17T12:49:24.457Z,101531.09
2022-10-17T12:51:56.252Z,101542.63
2022-10-17T12:54:27.733Z,101537.94
2022-10-17T12:56:59.730Z,101530.00
2022-10-17T12:59:31.221Z,101541.81
2022-10-17T13:02:03.315Z,101534.78
2022-10-17T13:04:34.958Z,101529.56
2022-10-17T13:07:06.775Z,101537.75
2022-10-17T13:09:38.269Z,101516.84
2022-10-17T13:12:10.880Z,101515.63
2022-10-17T13:14:42.632Z,101513.34
2022-10-17T13:17:14.503Z,101513.72
2022-10-17T13:19:46.187Z,101519.81
2022-10-17T13:22:17.741Z,101521.81
2022-10-17T13:24:49.235Z,101519.59
2022-10-17T13:27:21.196Z,101523.72
2022-10-17T13:29:53.189Z,101522.03
2022-10-17T13:32:24.710Z,101518.25
2022-10-17T13:34:56.549Z,101515.69
2022-10-17T13:37:28.048Z,101522.00
2022-10-17T13:40:07.008Z,101518.50
2022-10-17T13:42:49.273Z,101517.66
2022-10-17T13:45:21.253Z,101524.72
2022-10-17T13:47:52.747Z,101521.41
2022-10-17T13:50:43.129Z,101506.47
2022-10-17T13:53:16.004Z,101515.44
2022-10-17T13:55:48.171Z,101531.66
2022-10-17T13:58:19.682Z,101517.72
2022-10-17T14:00:53.035Z,101529.50
2022-10-17T14:03:31.809Z,101528.59
2022-10-17T14:06:10.177Z,101526.84
2022-10-17T14:08:41.723Z,101526.16
2022-10-17T14:11:13.630Z,101531.41
2022-10-17T14:13:46.186Z,101527.38
2022-10-17T14:16:18.214Z,101527.38
2022-10-17T14:18:49.837Z,101523.41
2022-10-17T14:24:13.275Z,101529.19
2022-10-17T14:26:44.809Z,101531.22
2022-10-17T14:29:16.312Z,101530.41
2022-10-17T14:31:50.817Z,101531.72
2022-10-17T14:34:22.637Z,101526.34
2022-10-17T14:36:54.660Z,101530.41
2022-10-17T14:39:26.209Z,101533.16
2022-10-17T14:42:02.057Z,101534.00
2022-10-17T14:44:35.692Z,101535.38
2022-10-17T14:47:38.196Z,101536.78
2022-10-17T14:49:59.003Z,101541.88
2022-10-17T14:52:31.467Z,101533.47
2022-10-17T14:55:03.204Z,101533.88
2022-10-17T14:57:35.040Z,101538.66
2022-10-17T15:00:06.526Z,101539.53
2022-10-17T15:02:38.580Z,101534.97
2022-10-17T15:05:13.224Z,101538.75
2022-10-17T15:07:45.198Z,101546.19
2022-10-17T15:10:16.683Z,101542.03
2022-10-17T15:12:57.475Z,101544.56
2022-10-17T15:15:31.464Z,101545.72
2022-10-17T15:18:03.388Z,101545.84
2022-10-17T15:20:34.973Z,101538.81
2022-10-17T15:23:06.785Z,101532.38
2022-10-17T15:25:38.278Z,101550.97
2022-10-17T15:28:11.232Z,101551.53
2022-10-17T15:30:42.732Z,101547.72
2022-10-17T15:33:14.549Z,101551.88
2022-10-17T15:35:46.184Z,101551.13
2022-10-17T15:38:17.998Z,101550.09
2022-10-17T15:40:51.916Z,101542.53
2022-10-17T15:43:23.769Z,101548.31
2022-10-17T15:45:55.432Z,101548.63
2022-10-17T15:48:27.495Z,101545.69
2022-10-17T15:50:59.306Z,101560.94
2022-10-17T15:53:30.805Z,101561.81
2022-10-17T15:56:02.670Z,101559.41
2022-10-17T15:58:34.218Z,101557.84
2022-10-17T16:01:06.717Z,101560.91
2022-10-17T16:03:38.308Z,101564.47
2022-10-17T16:06:13.419Z,101566.16
2022-10-17T16:08:45.754Z,101557.22
2022-10-17T16:11:17.570Z,101558.88
2022-10-17T16:13:49.069Z,101560.50
2022-10-17T16:16:22.459Z,101560.50
2022-10-17T16:18:54.042Z,101558.91
2022-10-17T16:21:25.862Z,101570.88
2022-10-17T16:23:57.407Z,101564.66
2022-10-17T16:26:29.367Z,101569.25
2022-10-17T16:29:02.944Z,101569.53
2022-10-17T16:31:35.036Z,101565.72
2022-10-17T16:34:06.850Z,101577.91
2022-10-17T16:36:38.686Z,101576.53
2022-10-17T16:39:10.239Z,101576.50
2022-10-17T16:41:42.091Z,101574.06
2022-10-17T16:44:14.576Z,101583.53
2022-10-17T16:46:46.419Z,101587.00
2022-10-17T16:49:18.281Z,101575.63
2022-10-17T16:51:50.126Z,101580.19
2022-10-17T16:54:21.642Z,101580.44
2022-10-17T16:56:53.219Z,101576.38
2022-10-17T16:59:25.172Z,101580.34
2022-10-17T17:01:57.164Z,101581.94
2022-10-17T17:04:28.699Z,101590.06
2022-10-17T17:07:00.686Z,101590.56
2022-10-17T17:09:32.203Z,101587.84
2022-10-17T17:12:04.037Z,101589.16
2022-10-17T17:14:35.513Z,101586.38
2022-10-17T17:17:12.241Z,101585.78
2022-10-17T17:19:51.190Z,101574.06
2022-10-17T17:22:22.762Z,101579.75
2022-10-17T17:24:54.346Z,101587.31
2022-10-17T17:27:25.866Z,101578.28
2022-10-17T17:29:57.356Z,101586.88
2022-10-17T17:32:29.329Z,101586.34
2022-10-17T17:35:00.895Z,101588.25
2022-10-17T17:37:32.956Z,101591.25
2022-10-17T17:40:06.093Z,101599.88
2022-10-17T17:42:37.928Z,101594.13
2022-10-17T17:45:09.467Z,101591.88
2022-10-17T17:47:41.342Z,101599.44
2022-10-17T17:50:13.175Z,101592.63
2022-10-17T17:52:46.929Z,101609.09
2022-10-17T17:55:18.418Z,101606.06
2022-10-17T17:57:50.017Z,101603.56
2022-10-17T18:00:21.542Z,101605.16
2022-10-17T18:02:53.545Z,101611.28
2022-10-17T18:05:25.571Z,101605.78
2022-10-17T18:07:57.130Z,101614.00
2022-10-17T18:10:29.098Z,101610.88
2022-10-17T18:13:00.616Z,101614.53
2022-10-17T18:15:32.158Z,101607.78
2022-10-17T18:18:03.662Z,101610.09
2022-10-17T18:20:36.410Z,101618.13
2022-10-17T18:23:08.005Z,101615.75
2022-10-17T18:25:39.935Z,101620.19
2022-10-17T18:28:11.498Z,101629.13
2022-10-17T18:30:43.165Z,101624.66
2022-10-17T18:33:14.656Z,101633.91
2022-10-17T18:35:46.604Z,101622.72
2022-10-17T18:38:18.145Z,101635.19
2022-10-17T18:40:50.774Z,101639.03
2022-10-17T18:43:22.522Z,101633.38
2022-10-17T18:45:54.331Z,101635.81
2022-10-17T18:48:25.835Z,101639.91
2022-10-17T18:50:57.634Z,101640.78
2022-10-17T18:53:29.119Z,101640.78
2022-10-17T18:56:00.940Z,101646.38
2022-10-17T18:58:32.445Z,101645.50
2022-10-17T19:01:03.966Z,101646.81
2022-10-17T19:03:35.753Z,101658.19
2022-10-17T19:06:07.897Z,101661.16
2022-10-17T19:08:39.490Z,101663.78
2022-10-17T19:11:11.468Z,101663.16
2022-10-17T19:13:43.109Z,101670.09
2022-10-17T19:16:15.130Z,101677.03
2022-10-17T19:18:46.698Z,101690.22
2022-10-17T19:21:21.835Z,101684.13
2022-10-17T19:23:53.943Z,101688.38
2022-10-17T19:26:25.890Z,101683.09
2022-10-17T19:28:57.475Z,101685.69
2022-10-17T19:31:29.443Z,101684.88
2022-10-17T19:34:00.959Z,101678.84
2022-10-17T19:36:33.712Z,101678.84
2022-10-17T19:39:05.359Z,101682.03
2022-10-17T19:41:37.283Z,101688.50
2022-10-17T19:44:08.901Z,101680.28
2022-10-17T19:46:40.675Z,101686.81
2022-10-17T19:49:12.562Z,101690.00
2022-10-17T19:51:44.081Z,101695.28
2022-10-17T19:54:18.697Z,101693.66
2022-10-17T19:56:50.198Z,101692.34
2022-10-17T19:59:22.038Z,101694.84
2022-10-17T20:01:53.699Z,101694.84
2022-10-17T20:04:25.558Z,101693.66
2022-10-17T20:06:59.869Z,101702.31
2022-10-17T20:09:31.878Z,101695.66
2022-10-17T20:12:03.410Z,101700.22
2022-10-17T20:14:40.084Z,101694.97
2022-10-17T20:17:12.572Z,101697.56
2022-10-17T20:19:44.428Z,101700.03
2022-10-17T20:22:15.935Z,101703.13
2022-10-17T20:24:47.785Z,101709.91
2022-10-17T20:27:20.137Z,101711.44
2022-10-17T20:29:54.061Z,101714.34
2022-10-17T20:32:25.561Z,101714.25
2022-10-17T20:34:57.393Z,101721.91
2022-10-17T20:37:29.070Z,101732.94
2022-10-17T20:40:29.580Z,101724.53
2022-10-17T20:42:52.619Z,101721.16
2022-10-17T20:45:37.512Z,101730.66
2022-10-17T20:48:15.987Z,101723.84
2022-10-17T20:50:47.813Z,101738.03
2022-10-17T20:56:11.929Z,101746.50
2022-10-17T20:58:43.737Z,101744.53
2022-10-17T21:01:15.264Z,101740.91
2022-10-17T21:03:47.378Z,101738.69
2022-10-17T21:06:18.889Z,101744.06
2022-10-17T21:08:50.703Z,101748.28
2022-10-17T21:11:22.217Z,101746.50
2022-10-17T21:13:54.157Z,101751.56
2022-10-17T21:16:25.679Z,101746.84
2022-10-17T21:18:57.623Z,101751.41
2022-10-17T21:21:29.501Z,101750.13
2022-10-17T21:24:01.519Z,101745.69
2022-10-17T21:26:33.086Z,101750.94
2022-10-17T21:29:06.206Z,101757.25
2022-10-17T21:31:37.696Z,101756.31
2022-10-17T21:34:09.550Z,101758.63
2022-10-17T21:36:41.027Z,101759.09
2022-10-17T21:39:13.018Z,101756.41
2022-10-17T21:41:44.596Z,101752.91
2022-10-17T21:44:16.424Z,101758.06
2022-10-17T21:46:47.954Z,101764.00
2022-10-17T21:49:20.000Z,101759.22
2022-10-17T21:51:51.535Z,101765.66
2022-10-17T21:54:23.840Z,101767.19
2022-10-17T21:56:55.357Z,101772.78
2022-10-17T21:59:27.280Z,101778.41
2022-10-17T22:01:58.923Z,101775.59
2022-10-17T22:04:30.974Z,101779.69
2022-10-17T22:07:02.501Z,101789.84
2022-10-17T22:09:34.453Z,101790.09
2022-10-17T22:12:05.973Z,101789.34
2022-10-17T22:14:37.974Z,101797.63
2022-10-17T22:17:09.482Z,101801.84
2022-10-17T22:19:41.327Z,101798.09
2022-10-17T22:22:12.842Z,101803.56
2022-10-17T22:24:44.723Z,101803.56
2022-10-17T22:27:16.254Z,101811.03
2022-10-17T22:29:48.016Z,101808.34
2022-10-17T22:32:22.358Z,101808.34
2022-10-17T22:34:54.698Z,101801.78
2022-10-17T22:37:26.173Z,101804.25
2022-10-17T22:39:58.043Z,101811.50
2022-10-17T22:42:31.634Z,101808.69
2022-10-17T22:45:03.749Z,101805.84
2022-10-17T22:47:35.365Z,101809.72
2022-10-17T22:50:07.285Z,101808.09
2022-10-17T22:52:38.803Z,101803.44
2022-10-17T22:55:10.711Z,101797.25
2022-10-17T22:57:42.265Z,101806.13
2022-10-17T23:00:14.167Z,101805.66
2022-10-17T23:02:45.783Z,101807.75
2022-10-17T23:05:17.721Z,101810.00
2022-10-17T23:07:49.298Z,101804.63
2022-10-17T23:10:21.393Z,101804.63
2022-10-17T23:12:52.889Z,101807.19
2022-10-17T23:15:24.391Z,101807.63
2022-10-17T23:17:55.893Z,101806.00
2022-10-17T23:20:27.779Z,101809.28
2022-10-17T23:22:59.272Z,101804.59
2022-10-17T23:25:31.106Z,101804.81
2022-10-17T23:28:02.614Z,101809.13
2022-10-17T23:30:34.430Z,101809.50
2022-10-17T23:33:05.937Z,101817.47
2022-10-17T23:35:37.752Z,101819.56
2022-10-17T23:38:09.581Z,101819.56
2022-10-17T23:40:41.052Z,101815.84
2022-10-17T23:43:12.896Z,101821.22
2022-10-17T23:45:44.453Z,101817.94
2022-10-17T23:48:16.336Z,101818.75
2022-10-17T23:50:47.837Z,101816.19
2022-10-17T23:53:19.657Z,101812.81
2022-10-17T23:55:51.174Z,101809.81
2022-10-17T23:58:22.729Z,101811.00
